TAT21SB DTTA-DAUU
Flight info
| Callsign | TAT21SB |
|---|---|
| Flight time | N/A |
| Altitude | 34000 |
| Route | BELED UG864 TBS UJ30 ELO UJ28 TGU DCT OUR |
| Aircraft | F28/M-SDFIRWY/H |
Departure
| Time | 2026-05-07 17:02 |
|---|---|
| Airport | Tunis Carthage International Airport (DTTA) |
Arrival
| Time | N/A |
|---|---|
| Airport | Ain Beida Airport (DAUU) |
| Time | Latitude | Longitude | Altitude | Speed | Heading |
|---|---|---|---|---|---|
| 2026-05-07 16:50 | 36.84213 | 10.22028 | 28 ft | 0 kts | 103° |
| 2026-05-07 16:59 | 36.84212 | 10.22033 | 28 ft | 4 kts | 103° |
| 2026-05-07 16:59 | 36.84176 | 10.22052 | 28 ft | 8 kts | 200° |
| 2026-05-07 16:59 | 36.84158 | 10.21978 | 28 ft | 11 kts | 262° |
| 2026-05-07 17:00 | 36.84124 | 10.21897 | 28 ft | 11 kts | 208° |
| 2026-05-07 17:00 | 36.84049 | 10.21881 | 28 ft | 11 kts | 189° |
| 2026-05-07 17:00 | 36.83967 | 10.21862 | 28 ft | 12 kts | 191° |
| 2026-05-07 17:00 | 36.83901 | 10.21895 | 28 ft | 11 kts | 110° |
| 2026-05-07 17:01 | 36.83886 | 10.21991 | 28 ft | 12 kts | 98° |
| 2026-05-07 17:01 | 36.83874 | 10.22094 | 28 ft | 13 kts | 99° |
| 2026-05-07 17:01 | 36.83869 | 10.22205 | 28 ft | 14 kts | 81° |
| 2026-05-07 17:01 | 36.83929 | 10.22344 | 29 ft | 22 kts | 46° |
| 2026-05-07 17:02 | 36.84129 | 10.22437 | 29 ft | 54 kts | 12° |
| 2026-05-07 17:02 | 36.84709 | 10.22590 | 27 ft | 112 kts | 12° |
| 2026-05-07 17:02 | 36.85612 | 10.22836 | 68 ft | 148 kts | 12° |
| 2026-05-07 17:02 | 36.86662 | 10.23081 | 631 ft | 154 kts | 11° |
| 2026-05-07 17:03 | 36.87740 | 10.23290 | 1294 ft | 163 kts | 9° |
| 2026-05-07 17:03 | 36.88922 | 10.23491 | 1813 ft | 182 kts | 9° |
| 2026-05-07 17:03 | 36.90221 | 10.23715 | 2474 ft | 190 kts | 12° |
| 2026-05-07 17:03 | 36.91528 | 10.24057 | 3128 ft | 201 kts | 13° |
| 2026-05-07 17:04 | 36.93009 | 10.24030 | 3463 ft | 230 kts | 348° |
| 2026-05-07 17:04 | 36.94431 | 10.22938 | 3813 ft | 248 kts | 311° |
| 2026-05-07 17:04 | 36.95035 | 10.20922 | 4232 ft | 255 kts | 271° |
| 2026-05-07 17:04 | 36.94665 | 10.18806 | 4840 ft | 248 kts | 240° |
| 2026-05-07 17:05 | 36.93597 | 10.17239 | 5476 ft | 238 kts | 208° |
| 2026-05-07 17:05 | 36.92050 | 10.16807 | 5836 ft | 231 kts | 164° |
| 2026-05-07 17:05 | 36.90649 | 10.17687 | 6203 ft | 224 kts | 144° |
| 2026-05-07 17:05 | 36.89358 | 10.18808 | 6394 ft | 229 kts | 142° |
| 2026-05-07 17:06 | 36.88004 | 10.19890 | 6384 ft | 235 kts | 160° |
| 2026-05-07 17:06 | 36.86394 | 10.19709 | 6599 ft | 241 kts | 201° |
| 2026-05-07 17:06 | 36.85037 | 10.18604 | 7320 ft | 224 kts | 211° |
| 2026-05-07 17:06 | 36.83782 | 10.17407 | 7870 ft | 233 kts | 212° |
| 2026-05-07 17:07 | 36.82433 | 10.16181 | 7953 ft | 248 kts | 210° |
| 2026-05-07 17:07 | 36.80948 | 10.14870 | 8027 ft | 274 kts | 210° |
| 2026-05-07 17:07 | 36.79347 | 10.13437 | 8466 ft | 288 kts | 213° |
| 2026-05-07 17:07 | 36.77848 | 10.11769 | 9331 ft | 291 kts | 223° |
| 2026-05-07 17:08 | 36.76538 | 10.09839 | 10143 ft | 291 kts | 224° |
| 2026-05-07 17:08 | 36.75242 | 10.07896 | 10919 ft | 291 kts | 226° |
| 2026-05-07 17:08 | 36.73961 | 10.05930 | 11604 ft | 294 kts | 227° |
| 2026-05-07 17:08 | 36.72668 | 10.03941 | 12257 ft | 297 kts | 227° |
| 2026-05-07 17:09 | 36.71358 | 10.01925 | 12866 ft | 302 kts | 228° |
| 2026-05-07 17:09 | 36.70024 | 9.99877 | 13461 ft | 307 kts | 229° |
| 2026-05-07 17:09 | 36.68667 | 9.97794 | 13960 ft | 313 kts | 229° |
| 2026-05-07 17:09 | 36.67275 | 9.95656 | 14287 ft | 324 kts | 229° |
| 2026-05-07 17:10 | 36.65829 | 9.93438 | 14565 ft | 336 kts | 230° |
| 2026-05-07 17:10 | 36.64333 | 9.91148 | 14879 ft | 346 kts | 230° |
| 2026-05-07 17:10 | 36.62798 | 9.88794 | 15218 ft | 354 kts | 230° |
| 2026-05-07 17:10 | 36.61230 | 9.86392 | 15613 ft | 360 kts | 230° |
| 2026-05-07 17:11 | 36.59640 | 9.83961 | 16031 ft | 364 kts | 230° |
| 2026-05-07 17:11 | 36.58032 | 9.81500 | 16469 ft | 368 kts | 230° |
| 2026-05-07 17:11 | 36.56960 | 9.79861 | 16758 ft | 370 kts | 231° |
| 2026-05-07 17:11 | 36.55332 | 9.77371 | 17217 ft | 372 kts | 231° |
| 2026-05-07 17:12 | 36.53693 | 9.74865 | 17671 ft | 374 kts | 231° |
| 2026-05-07 17:12 | 36.52048 | 9.72353 | 18127 ft | 375 kts | 231° |
| 2026-05-07 17:12 | 36.50398 | 9.69834 | 18523 ft | 376 kts | 231° |
| 2026-05-07 17:12 | 36.48744 | 9.67307 | 18911 ft | 377 kts | 231° |
| 2026-05-07 17:13 | 36.47084 | 9.64776 | 19280 ft | 378 kts | 231° |
| 2026-05-07 17:13 | 36.45420 | 9.62239 | 19659 ft | 379 kts | 231° |
| 2026-05-07 17:13 | 36.43753 | 9.59696 | 20026 ft | 380 kts | 231° |
| 2026-05-07 17:13 | 36.42081 | 9.57148 | 20409 ft | 381 kts | 231° |
| 2026-05-07 17:14 | 36.40450 | 9.54562 | 20798 ft | 380 kts | 234° |
| 2026-05-07 17:14 | 36.38929 | 9.51871 | 21184 ft | 380 kts | 236° |
| 2026-05-07 17:14 | 36.37445 | 9.49158 | 21562 ft | 380 kts | 237° |
| 2026-05-07 17:14 | 36.35971 | 9.46436 | 21933 ft | 380 kts | 236° |
| 2026-05-07 17:15 | 36.34432 | 9.43778 | 22309 ft | 379 kts | 236° |
| 2026-05-07 17:15 | 36.32926 | 9.41091 | 22687 ft | 379 kts | 236° |
| 2026-05-07 17:15 | 36.31443 | 9.38394 | 23046 ft | 379 kts | 237° |
| 2026-05-07 17:15 | 36.29890 | 9.35752 | 23405 ft | 379 kts | 233° |
| 2026-05-07 17:16 | 36.28257 | 9.33193 | 23709 ft | 379 kts | 233° |
| 2026-05-07 17:16 | 36.26615 | 9.30645 | 23998 ft | 378 kts | 233° |
| 2026-05-07 17:16 | 36.24972 | 9.28108 | 24291 ft | 377 kts | 233° |
| 2026-05-07 17:16 | 36.23352 | 9.25607 | 24584 ft | 376 kts | 233° |
| 2026-05-07 17:17 | 36.21715 | 9.23082 | 24880 ft | 375 kts | 234° |
| 2026-05-07 17:17 | 36.20083 | 9.20566 | 25169 ft | 374 kts | 234° |
| 2026-05-07 17:17 | 36.18456 | 9.18056 | 25465 ft | 373 kts | 234° |
| 2026-05-07 17:17 | 36.16835 | 9.15560 | 25768 ft | 371 kts | 234° |
| 2026-05-07 17:18 | 36.15222 | 9.13074 | 26068 ft | 370 kts | 234° |
| 2026-05-07 17:18 | 36.13614 | 9.10596 | 26367 ft | 368 kts | 235° |
| 2026-05-07 17:18 | 36.12016 | 9.08139 | 26665 ft | 366 kts | 235° |
| 2026-05-07 17:18 | 36.10421 | 9.05682 | 26952 ft | 365 kts | 235° |
| 2026-05-07 17:19 | 36.08837 | 9.03246 | 27247 ft | 363 kts | 236° |
| 2026-05-07 17:19 | 36.07258 | 9.00820 | 27541 ft | 361 kts | 236° |
| 2026-05-07 17:19 | 36.05690 | 8.98410 | 27828 ft | 359 kts | 236° |
| 2026-05-07 17:19 | 36.04131 | 8.96014 | 28123 ft | 357 kts | 236° |
| 2026-05-07 17:20 | 36.02579 | 8.93635 | 28417 ft | 355 kts | 236° |
| 2026-05-07 17:20 | 36.01041 | 8.91266 | 28721 ft | 352 kts | 237° |
| 2026-05-07 17:20 | 35.99508 | 8.88917 | 29018 ft | 350 kts | 237° |
| 2026-05-07 17:20 | 35.97985 | 8.86581 | 29309 ft | 348 kts | 237° |
| 2026-05-07 17:21 | 35.96470 | 8.84261 | 29592 ft | 346 kts | 237° |
| 2026-05-07 17:21 | 35.94966 | 8.81954 | 29876 ft | 344 kts | 237° |
| 2026-05-07 17:21 | 35.93474 | 8.79668 | 30114 ft | 341 kts | 238° |
| 2026-05-07 17:21 | 35.91991 | 8.77391 | 30341 ft | 339 kts | 237° |
| 2026-05-07 17:22 | 35.90513 | 8.75132 | 30568 ft | 337 kts | 237° |
| 2026-05-07 17:22 | 35.89065 | 8.72917 | 30785 ft | 335 kts | 237° |
| 2026-05-07 17:22 | 35.87588 | 8.70655 | 31009 ft | 333 kts | 237° |
| 2026-05-07 17:22 | 35.86156 | 8.68467 | 31228 ft | 332 kts | 237° |
| 2026-05-07 17:23 | 35.84710 | 8.66258 | 31429 ft | 330 kts | 237° |
| 2026-05-07 17:23 | 35.83267 | 8.64054 | 31569 ft | 330 kts | 237° |
| 2026-05-07 17:23 | 35.81829 | 8.61853 | 31737 ft | 330 kts | 237° |
| 2026-05-07 17:23 | 35.80389 | 8.59656 | 31904 ft | 329 kts | 237° |
| 2026-05-07 17:24 | 35.78955 | 8.57468 | 32070 ft | 328 kts | 237° |
| 2026-05-07 17:24 | 35.77523 | 8.55283 | 32229 ft | 328 kts | 237° |
| 2026-05-07 17:24 | 35.76094 | 8.53103 | 32387 ft | 327 kts | 237° |
| 2026-05-07 17:24 | 35.74667 | 8.50926 | 32540 ft | 326 kts | 236° |
| 2026-05-07 17:25 | 35.73242 | 8.48756 | 32689 ft | 325 kts | 236° |
| 2026-05-07 17:25 | 35.71821 | 8.46590 | 32839 ft | 325 kts | 236° |
| 2026-05-07 17:25 | 35.70404 | 8.44433 | 32985 ft | 324 kts | 236° |
| 2026-05-07 17:25 | 35.68991 | 8.42281 | 33124 ft | 323 kts | 236° |
| 2026-05-07 17:26 | 35.67580 | 8.40134 | 33280 ft | 322 kts | 236° |
| 2026-05-07 17:26 | 35.66173 | 8.37993 | 33432 ft | 321 kts | 236° |
| 2026-05-07 17:26 | 35.64772 | 8.35861 | 33590 ft | 320 kts | 236° |
| 2026-05-07 17:26 | 35.63372 | 8.33732 | 33751 ft | 320 kts | 236° |
| 2026-05-07 17:27 | 35.61976 | 8.31611 | 33900 ft | 319 kts | 236° |
| 2026-05-07 17:27 | 35.60572 | 8.29478 | 33889 ft | 322 kts | 236° |
| 2026-05-07 17:27 | 35.57730 | 8.25161 | 33901 ft | 328 kts | 236° |
| 2026-05-07 17:28 | 35.54843 | 8.20781 | 33900 ft | 332 kts | 235° |
| 2026-05-07 17:28 | 35.51926 | 8.16357 | 33905 ft | 335 kts | 235° |
| 2026-05-07 17:29 | 35.48997 | 8.11921 | 33931 ft | 330 kts | 235° |
| 2026-05-07 17:29 | 35.45539 | 8.08310 | 33927 ft | 337 kts | 215° |
| 2026-05-07 17:30 | 35.41241 | 8.05980 | 33909 ft | 339 kts | 213° |
| 2026-05-07 17:30 | 35.36941 | 8.03642 | 33887 ft | 337 kts | 214° |
| 2026-05-07 17:31 | 35.32774 | 8.01171 | 33884 ft | 332 kts | 217° |
| 2026-05-07 17:31 | 35.28697 | 7.98456 | 33886 ft | 331 kts | 218° |
| 2026-05-07 17:32 | 35.24740 | 7.95693 | 33883 ft | 329 kts | 219° |
| 2026-05-07 17:32 | 35.20806 | 7.92843 | 33868 ft | 328 kts | 219° |
| 2026-05-07 17:33 | 35.16892 | 7.89972 | 33873 ft | 328 kts | 219° |
| 2026-05-07 17:33 | 35.12989 | 7.87092 | 33865 ft | 327 kts | 219° |
| 2026-05-07 17:34 | 35.09098 | 7.84213 | 33858 ft | 327 kts | 219° |
| 2026-05-07 17:34 | 35.05217 | 7.81318 | 33859 ft | 326 kts | 220° |
| 2026-05-07 17:35 | 35.01427 | 7.78306 | 33860 ft | 325 kts | 221° |
| 2026-05-07 17:35 | 34.97675 | 7.75249 | 33851 ft | 324 kts | 221° |
| 2026-05-07 17:36 | 34.93939 | 7.72182 | 33862 ft | 323 kts | 221° |
| 2026-05-07 17:36 | 34.90209 | 7.69108 | 33860 ft | 324 kts | 221° |
| 2026-05-07 17:37 | 34.86479 | 7.66036 | 33854 ft | 324 kts | 220° |
| 2026-05-07 17:37 | 34.82591 | 7.63245 | 33850 ft | 329 kts | 216° |
| 2026-05-07 17:38 | 34.78394 | 7.60910 | 33831 ft | 333 kts | 212° |
| 2026-05-07 17:38 | 34.74054 | 7.58881 | 33805 ft | 333 kts | 209° |
| 2026-05-07 17:39 | 34.69743 | 7.56863 | 33839 ft | 332 kts | 208° |
| 2026-05-07 17:39 | 34.65402 | 7.54938 | 33845 ft | 333 kts | 207° |
| 2026-05-07 17:40 | 34.61004 | 7.53152 | 33839 ft | 333 kts | 207° |
| 2026-05-07 17:40 | 34.56645 | 7.51274 | 33825 ft | 329 kts | 210° |
| 2026-05-07 17:41 | 34.52496 | 7.48973 | 33825 ft | 326 kts | 214° |
| 2026-05-07 17:41 | 34.48599 | 7.46280 | 33829 ft | 324 kts | 216° |
| 2026-05-07 17:42 | 34.44711 | 7.43529 | 33822 ft | 324 kts | 216° |
| 2026-05-07 17:42 | 34.40823 | 7.40781 | 33816 ft | 324 kts | 216° |
| 2026-05-07 17:43 | 34.36935 | 7.38037 | 33814 ft | 323 kts | 216° |
| 2026-05-07 17:43 | 34.33048 | 7.35295 | 33812 ft | 323 kts | 216° |
| 2026-05-07 17:44 | 34.29165 | 7.32560 | 33809 ft | 323 kts | 216° |
| 2026-05-07 17:44 | 34.25285 | 7.29830 | 33802 ft | 323 kts | 216° |
| 2026-05-07 17:45 | 34.21405 | 7.27101 | 33809 ft | 322 kts | 216° |
| 2026-05-07 17:45 | 34.17530 | 7.24379 | 33807 ft | 322 kts | 216° |
| 2026-05-07 17:46 | 34.13655 | 7.21660 | 33802 ft | 322 kts | 216° |